Terminal Aerodrome Forecast
Issued by NWS

Home | Current Version | Previous Version | Text Only | Print | Product List | Glossary On
Versions: 1 2 3 4 5 6 7 8 9 10 11 12 13 14 15 16 17 18 19 20 21 22 23
819
FTUS45 KREV 200535
TAFCXP
TAF
KCXP 200535Z 2006/2106 22011G19KT P6SM SCT070 BKN110
     FM200800 20011G18KT P6SM VCSH SCT035 OVC070
     FM201100 20012G22KT 6SM -RA SCT015 OVC028 WS020/25045KT
     FM201700 18025G35KT 4SM RA BKN018 OVC025 WS015/25070KT
     FM210000 16015G25KT 3SM RA BKN010 OVC018 WS015/25070KT
      AMD NOT SKED=

USA.gov is the U.S. government's official web portal to all federal, state and local government web resources and services.